sensor_id;sensor_type;location;lat;lon;timestamp;temperature;humidity
43862;DHT22;29510;52.140;5.034;2023-11-25T00:07:50;6.40;1.00
43862;DHT22;29510;52.140;5.034;2023-11-25T00:17:51;6.20;1.00
43862;DHT22;29510;52.140;5.034;2023-11-25T00:27:55;6.00;1.00
43862;DHT22;29510;52.140;5.034;2023-11-25T00:37:56;5.90;1.00
43862;DHT22;29510;52.140;5.034;2023-11-25T00:47:56;5.80;1.00
43862;DHT22;29510;52.140;5.034;2023-11-25T00:57:57;5.60;1.00
43862;DHT22;29510;52.140;5.034;2023-11-25T01:07:58;5.60;5.30
43862;DHT22;29510;52.140;5.034;2023-11-25T01:17:59;5.40;3.90
43862;DHT22;29510;52.140;5.034;2023-11-25T01:27:59;5.10;7.80
43862;DHT22;29510;52.140;5.034;2023-11-25T01:38:00;4.80;12.20
43862;DHT22;29510;52.140;5.034;2023-11-25T01:48:00;4.50;14.00
43862;DHT22;29510;52.140;5.034;2023-11-25T01:58:03;4.30;22.00
43862;DHT22;29510;52.140;5.034;2023-11-25T02:08:05;4.30;23.30
43862;DHT22;29510;52.140;5.034;2023-11-25T02:18:07;4.10;27.50
43862;DHT22;29510;52.140;5.034;2023-11-25T02:28:08;4.00;27.30
43862;DHT22;29510;52.140;5.034;2023-11-25T02:38:09;4.00;37.20
43862;DHT22;29510;52.140;5.034;2023-11-25T02:48:11;4.10;47.20
43862;DHT22;29510;52.140;5.034;2023-11-25T02:58:16;4.10;43.80
43862;DHT22;29510;52.140;5.034;2023-11-25T03:08:17;4.10;33.30
43862;DHT22;29510;52.140;5.034;2023-11-25T03:18:18;4.00;32.80
43862;DHT22;29510;52.140;5.034;2023-11-25T03:28:18;3.90;28.90
43862;DHT22;29510;52.140;5.034;2023-11-25T03:38:20;3.90;33.10
43862;DHT22;29510;52.140;5.034;2023-11-25T03:48:22;4.00;45.50
43862;DHT22;29510;52.140;5.034;2023-11-25T03:58:24;4.60;49.20
43862;DHT22;29510;52.140;5.034;2023-11-25T04:08:24;5.00;47.20
43862;DHT22;29510;52.140;5.034;2023-11-25T04:18:25;5.20;47.90
43862;DHT22;29510;52.140;5.034;2023-11-25T04:28:26;5.20;58.00
43862;DHT22;29510;52.140;5.034;2023-11-25T04:38:26;5.10;63.70
43862;DHT22;29510;52.140;5.034;2023-11-25T04:48:27;4.90;77.60
43862;DHT22;29510;52.140;5.034;2023-11-25T04:58:27;5.00;95.10
43862;DHT22;29510;52.140;5.034;2023-11-25T05:08:29;5.10;89.60
43862;DHT22;29510;52.140;5.034;2023-11-25T05:18:30;5.00;96.50
43862;DHT22;29510;52.140;5.034;2023-11-25T05:28:30;4.70;99.90
43862;DHT22;29510;52.140;5.034;2023-11-25T05:38:31;4.60;99.90
43862;DHT22;29510;52.140;5.034;2023-11-25T05:48:32;5.00;99.90
43862;DHT22;29510;52.140;5.034;2023-11-25T05:58:32;5.00;97.20
43862;DHT22;29510;52.140;5.034;2023-11-25T06:08:35;4.90;99.90
43862;DHT22;29510;52.140;5.034;2023-11-25T06:18:36;5.10;73.50
43862;DHT22;29510;52.140;5.034;2023-11-25T06:28:40;5.10;52.60
43862;DHT22;29510;52.140;5.034;2023-11-25T06:38:41;4.80;47.50
43862;DHT22;29510;52.140;5.034;2023-11-25T06:48:42;4.50;65.90
43862;DHT22;29510;52.140;5.034;2023-11-25T06:58:42;4.70;90.20
43862;DHT22;29510;52.140;5.034;2023-11-25T07:08:44;5.00;93.10
43862;DHT22;29510;52.140;5.034;2023-11-25T07:18:45;5.30;91.20
43862;DHT22;29510;52.140;5.034;2023-11-25T07:28:46;5.40;91.30
43862;DHT22;29510;52.140;5.034;2023-11-25T07:38:46;5.80;51.50
43862;DHT22;29510;52.140;5.034;2023-11-25T07:48:47;5.70;39.70
43862;DHT22;29510;52.140;5.034;2023-11-25T07:58:49;5.60;30.80
43862;DHT22;29510;52.140;5.034;2023-11-25T08:08:50;5.90;26.70
43862;DHT22;29510;52.140;5.034;2023-11-25T08:18:51;5.80;39.00
43862;DHT22;29510;52.140;5.034;2023-11-25T08:28:52;5.60;50.40
43862;DHT22;29510;52.140;5.034;2023-11-25T08:38:53;5.70;60.70
43862;DHT22;29510;52.140;5.034;2023-11-25T08:48:57;5.70;72.90
43862;DHT22;29510;52.140;5.034;2023-11-25T08:58:58;5.80;94.60
43862;DHT22;29510;52.140;5.034;2023-11-25T09:09:01;5.80;91.50
43862;DHT22;29510;52.140;5.034;2023-11-25T09:19:02;5.70;97.50
43862;DHT22;29510;52.140;5.034;2023-11-25T09:29:03;5.80;99.90
43862;DHT22;29510;52.140;5.034;2023-11-25T09:39:04;5.90;99.90
43862;DHT22;29510;52.140;5.034;2023-11-25T09:49:07;6.10;99.90
43862;DHT22;29510;52.140;5.034;2023-11-25T09:59:08;6.30;99.90
43862;DHT22;29510;52.140;5.034;2023-11-25T10:09:09;6.40;99.90
43862;DHT22;29510;52.140;5.034;2023-11-25T10:19:20;6.90;98.30
43862;DHT22;29510;52.140;5.034;2023-11-25T10:29:21;7.30;80.30
43862;DHT22;29510;52.140;5.034;2023-11-25T10:39:25;7.30;79.90
43862;DHT22;29510;52.140;5.034;2023-11-25T10:49:29;7.00;79.70
43862;DHT22;29510;52.140;5.034;2023-11-25T10:59:37;7.20;93.40
43862;DHT22;29510;52.140;5.034;2023-11-25T11:09:44;7.20;89.80
43862;DHT22;29510;52.140;5.034;2023-11-25T11:19:49;7.10;93.70
43862;DHT22;29510;52.140;5.034;2023-11-25T11:30:15;7.00;98.30
43862;DHT22;29510;52.140;5.034;2023-11-25T11:40:20;7.10;99.90
43862;DHT22;29510;52.140;5.034;2023-11-25T11:50:26;7.10;72.50
43862;DHT22;29510;52.140;5.034;2023-11-25T12:00:27;7.80;67.40
43862;DHT22;29510;52.140;5.034;2023-11-25T12:10:29;7.90;15.90
43862;DHT22;29510;52.140;5.034;2023-11-25T12:20:30;8.20;1.60
43862;DHT22;29510;52.140;5.034;2023-11-25T12:30:31;8.60;1.00
43862;DHT22;29510;52.140;5.034;2023-11-25T12:40:36;8.40;1.00
43862;DHT22;29510;52.140;5.034;2023-11-25T13:00:58;8.00;2.90
43862;DHT22;29510;52.140;5.034;2023-11-25T13:11:00;8.40;1.00
43862;DHT22;29510;52.140;5.034;2023-11-25T13:21:03;8.20;1.00
43862;DHT22;29510;52.140;5.034;2023-11-25T13:31:07;8.30;22.30
43862;DHT22;29510;52.140;5.034;2023-11-25T13:41:08;8.50;18.50
43862;DHT22;29510;52.140;5.034;2023-11-25T13:51:08;8.70;1.30
43862;DHT22;29510;52.140;5.034;2023-11-25T14:01:09;8.80;1.00
43862;DHT22;29510;52.140;5.034;2023-11-25T14:11:11;8.50;1.00
43862;DHT22;29510;52.140;5.034;2023-11-25T14:21:12;8.10;1.00
43862;DHT22;29510;52.140;5.034;2023-11-25T14:31:13;8.00;1.00
43862;DHT22;29510;52.140;5.034;2023-11-25T14:41:22;7.90;1.00
43862;DHT22;29510;52.140;5.034;2023-11-25T14:51:23;7.90;1.00
43862;DHT22;29510;52.140;5.034;2023-11-25T15:01:24;7.80;1.00
43862;DHT22;29510;52.140;5.034;2023-11-25T15:11:24;7.70;1.00
43862;DHT22;29510;52.140;5.034;2023-11-25T15:21:25;7.50;1.00
43862;DHT22;29510;52.140;5.034;2023-11-25T15:31:25;7.60;1.00
43862;DHT22;29510;52.140;5.034;2023-11-25T15:41:26;7.40;1.00
43862;DHT22;29510;52.140;5.034;2023-11-25T15:51:27;7.30;1.00
43862;DHT22;29510;52.140;5.034;2023-11-25T16:01:28;7.40;1.00
43862;DHT22;29510;52.140;5.034;2023-11-25T16:11:29;7.30;1.00
43862;DHT22;29510;52.140;5.034;2023-11-25T16:21:32;7.10;1.00
43862;DHT22;29510;52.140;5.034;2023-11-25T16:31:33;6.80;2.00
43862;DHT22;29510;52.140;5.034;2023-11-25T16:41:33;6.60;6.80
43862;DHT22;29510;52.140;5.034;2023-11-25T16:51:34;6.50;9.80
43862;DHT22;29510;52.140;5.034;2023-11-25T17:01:35;6.50;6.90
43862;DHT22;29510;52.140;5.034;2023-11-25T17:11:35;6.30;6.70
43862;DHT22;29510;52.140;5.034;2023-11-25T17:21:36;6.20;10.40
43862;DHT22;29510;52.140;5.034;2023-11-25T17:31:37;6.10;16.60
43862;DHT22;29510;52.140;5.034;2023-11-25T17:41:37;6.00;23.00
43862;DHT22;29510;52.140;5.034;2023-11-25T17:51:38;5.80;25.90
43862;DHT22;29510;52.140;5.034;2023-11-25T18:01:39;5.90;23.10
43862;DHT22;29510;52.140;5.034;2023-11-25T18:11:40;5.70;28.80
43862;DHT22;29510;52.140;5.034;2023-11-25T18:21:41;5.60;34.60
43862;DHT22;29510;52.140;5.034;2023-11-25T18:31:42;5.50;34.10
43862;DHT22;29510;52.140;5.034;2023-11-25T18:41:43;5.30;41.70
43862;DHT22;29510;52.140;5.034;2023-11-25T18:51:43;5.20;40.60
43862;DHT22;29510;52.140;5.034;2023-11-25T19:01:44;5.00;37.70
43862;DHT22;29510;52.140;5.034;2023-11-25T19:11:44;4.90;41.40
43862;DHT22;29510;52.140;5.034;2023-11-25T19:21:49;4.80;57.00
43862;DHT22;29510;52.140;5.034;2023-11-25T19:31:49;5.00;92.80
43862;DHT22;29510;52.140;5.034;2023-11-25T19:41:50;5.20;87.80
43862;DHT22;29510;52.140;5.034;2023-11-25T19:51:51;5.40;95.50
43862;DHT22;29510;52.140;5.034;2023-11-25T20:01:53;5.60;99.90
43862;DHT22;29510;52.140;5.034;2023-11-25T20:11:54;5.70;91.50
43862;DHT22;29510;52.140;5.034;2023-11-25T20:21:58;5.60;76.40
43862;DHT22;29510;52.140;5.034;2023-11-25T20:31:58;5.70;80.60
43862;DHT22;29510;52.140;5.034;2023-11-25T20:41:59;5.70;74.50
43862;DHT22;29510;52.140;5.034;2023-11-25T20:52:00;5.60;71.20
43862;DHT22;29510;52.140;5.034;2023-11-25T21:02:00;5.30;74.10
43862;DHT22;29510;52.140;5.034;2023-11-25T21:12:01;5.00;69.80
43862;DHT22;29510;52.140;5.034;2023-11-25T21:22:01;4.80;65.60
43862;DHT22;29510;52.140;5.034;2023-11-25T21:32:02;4.60;71.20
43862;DHT22;29510;52.140;5.034;2023-11-25T21:42:07;4.60;74.50
43862;DHT22;29510;52.140;5.034;2023-11-25T21:52:08;4.50;78.50
43862;DHT22;29510;52.140;5.034;2023-11-25T22:02:09;4.40;80.20
43862;DHT22;29510;52.140;5.034;2023-11-25T22:12:09;4.30;88.80
43862;DHT22;29510;52.140;5.034;2023-11-25T22:22:10;4.10;94.00
43862;DHT22;29510;52.140;5.034;2023-11-25T22:32:11;4.10;94.30
43862;DHT22;29510;52.140;5.034;2023-11-25T22:42:13;4.10;99.70
43862;DHT22;29510;52.140;5.034;2023-11-25T22:52:14;4.00;99.90
43862;DHT22;29510;52.140;5.034;2023-11-25T23:02:14;4.00;99.90
43862;DHT22;29510;52.140;5.034;2023-11-25T23:12:15;3.90;99.90
43862;DHT22;29510;52.140;5.034;2023-11-25T23:22:15;3.80;99.90
43862;DHT22;29510;52.140;5.034;2023-11-25T23:32:16;3.80;99.90
43862;DHT22;29510;52.140;5.034;2023-11-25T23:42:16;3.90;99.90
43862;DHT22;29510;52.140;5.034;2023-11-25T23:52:17;3.90;99.90
